Time,TemperatureF,DewpointF,PressureIn,WindDirection,WindDirectionDegrees,WindSpeedMPH,WindSpeedGustMPH,Humidity,HourlyPrecipIn,Conditions,Clouds,dailyrainin,SoftwareType,DateUTC
2013-03-03 00:01:00,42.0,26.0,-100.00,West,260,7.0,8.0,53,-99.99,,,0.00,,2013-03-03 07:01:00,
2013-03-03 00:11:00,41.0,27.0,-100.00,WNW,295,6.0,8.0,56,-99.99,,,0.00,,2013-03-03 07:11:00,
2013-03-03 00:21:00,41.0,27.0,-100.00,WNW,295,6.0,8.0,56,-99.99,,,0.00,,2013-03-03 07:21:00,
2013-03-03 00:31:00,41.0,27.0,-100.00,WNW,295,6.0,8.0,56,-99.99,,,0.00,,2013-03-03 07:31:00,
2013-03-03 00:42:00,41.0,27.0,-100.00,WNW,295,6.0,8.0,56,-99.99,,,0.00,,2013-03-03 07:42:00,
2013-03-03 00:51:00,41.0,27.0,-100.00,WSW,250,6.0,7.0,57,-99.99,,,0.00,,2013-03-03 07:51:00,
2013-03-03 01:01:00,41.0,27.0,-100.00,WSW,250,6.0,7.0,57,-99.99,,,0.00,,2013-03-03 08:01:00,
2013-03-03 01:11:00,41.0,26.0,-100.00,West,260,3.0,3.0,56,-99.99,,,0.00,,2013-03-03 08:11:00,
2013-03-03 01:21:00,41.0,26.0,-100.00,West,260,3.0,3.0,56,-99.99,,,0.00,,2013-03-03 08:21:00,
2013-03-03 01:31:00,41.0,26.0,-100.00,West,260,3.0,3.0,56,-99.99,,,0.00,,2013-03-03 08:31:00,
2013-03-03 01:41:00,41.0,26.0,-100.00,West,260,3.0,3.0,56,-99.99,,,0.00,,2013-03-03 08:41:00,
2013-03-03 01:53:00,38.0,26.0,-100.00,WNW,295,3.0,3.0,61,-99.99,,,0.00,,2013-03-03 08:53:00,
2013-03-03 02:01:00,38.0,26.0,-100.00,WNW,295,3.0,3.0,61,-99.99,,,0.00,,2013-03-03 09:01:00,
2013-03-03 02:11:00,40.0,28.0,-100.00,West,265,7.0,11.0,62,-99.99,,,0.00,,2013-03-03 09:11:00,
2013-03-03 02:21:00,40.0,28.0,-100.00,West,265,7.0,11.0,62,-99.99,,,0.00,,2013-03-03 09:21:00,
2013-03-03 02:32:00,40.0,28.0,-100.00,West,265,7.0,11.0,62,-99.99,,,0.00,,2013-03-03 09:32:00,
2013-03-03 02:41:00,40.0,28.0,-100.00,West,265,7.0,11.0,62,-99.99,,,0.00,,2013-03-03 09:41:00,
2013-03-03 02:51:00,39.0,27.0,-100.00,West,265,9.0,13.0,63,-99.99,,,0.00,,2013-03-03 09:51:00,
2013-03-03 03:01:00,39.0,27.0,-100.00,West,265,9.0,13.0,63,-99.99,,,0.00,,2013-03-03 10:01:00,
2013-03-03 03:11:00,38.0,27.0,-100.00,West,270,6.0,10.0,64,-99.99,,,0.00,,2013-03-03 10:11:00,
2013-03-03 03:21:00,38.0,27.0,-100.00,West,270,6.0,10.0,64,-99.99,,,0.00,,2013-03-03 10:21:00,
2013-03-03 03:32:00,38.0,27.0,-100.00,West,270,6.0,10.0,64,-99.99,,,0.00,,2013-03-03 10:32:00,
2013-03-03 03:42:00,38.0,27.0,-100.00,West,270,6.0,10.0,64,-99.99,,,0.00,,2013-03-03 10:42:00,
2013-03-03 03:52:00,38.0,27.0,-100.00,WSW,255,8.0,10.0,66,-99.99,,,0.00,,2013-03-03 10:52:00,
2013-03-03 04:01:00,38.0,27.0,-100.00,WSW,255,8.0,10.0,66,-99.99,,,0.00,,2013-03-03 11:01:00,
2013-03-03 04:11:00,39.0,28.0,-100.00,WSW,245,9.0,11.0,65,-99.99,,,0.00,,2013-03-03 11:11:00,
2013-03-03 04:21:00,39.0,28.0,-100.00,WSW,245,9.0,11.0,65,-99.99,,,0.00,,2013-03-03 11:21:00,
2013-03-03 04:31:00,39.0,28.0,-100.00,WSW,245,9.0,11.0,65,-99.99,,,0.00,,2013-03-03 11:31:00,
2013-03-03 04:41:00,39.0,28.0,-100.00,WSW,245,9.0,11.0,65,-99.99,,,0.00,,2013-03-03 11:41:00,
2013-03-03 04:52:00,39.0,28.0,-100.00,West,260,4.0,9.0,65,-99.99,,,0.00,,2013-03-03 11:52:00,
2013-03-03 05:01:00,39.0,28.0,-100.00,West,260,4.0,9.0,65,-99.99,,,0.00,,2013-03-03 12:01:00,
2013-03-03 05:11:00,40.0,28.0,-100.00,WSW,240,9.0,11.0,62,-99.99,,,0.00,,2013-03-03 12:11:00,
2013-03-03 05:21:00,40.0,28.0,-100.00,WSW,240,9.0,11.0,62,-99.99,,,0.00,,2013-03-03 12:21:00,
2013-03-03 05:32:00,40.0,28.0,-100.00,WSW,240,9.0,11.0,62,-99.99,,,0.00,,2013-03-03 12:32:00,
2013-03-03 05:42:00,40.0,28.0,-100.00,WSW,240,9.0,11.0,62,-99.99,,,0.00,,2013-03-03 12:42:00,
2013-03-03 05:52:00,39.0,28.0,-100.00,WSW,245,10.0,12.0,64,-99.99,,,0.00,,2013-03-03 12:52:00,
2013-03-03 06:01:00,39.0,28.0,-100.00,WSW,245,10.0,12.0,64,-99.99,,,0.00,,2013-03-03 13:01:00,
2013-03-03 06:11:00,39.0,28.0,-100.00,SW,225,10.0,12.0,64,-99.99,,,0.00,,2013-03-03 13:11:00,
2013-03-03 06:21:00,39.0,28.0,-100.00,SW,225,10.0,12.0,64,-99.99,,,0.00,,2013-03-03 13:21:00,
2013-03-03 06:32:00,39.0,28.0,-100.00,SW,225,10.0,12.0,64,-99.99,,,0.00,,2013-03-03 13:32:00,
2013-03-03 06:41:00,39.0,28.0,-100.00,SW,225,10.0,12.0,64,-99.99,,,0.00,,2013-03-03 13:41:00,
2013-03-03 06:51:00,39.0,28.0,-100.00,WSW,245,9.0,13.0,64,-99.99,,,0.00,,2013-03-03 13:51:00,
2013-03-03 07:01:00,39.0,28.0,-100.00,WSW,245,9.0,13.0,64,-99.99,,,0.00,,2013-03-03 14:01:00,
2013-03-03 07:11:00,38.0,27.0,-100.00,SW,235,11.0,13.0,66,-99.99,,,0.00,,2013-03-03 14:11:00,
2013-03-03 07:21:00,38.0,27.0,-100.00,SW,235,11.0,13.0,66,-99.99,,,0.00,,2013-03-03 14:21:00,
2013-03-03 07:31:00,38.0,27.0,-100.00,SW,235,11.0,13.0,66,-99.99,,,0.00,,2013-03-03 14:31:00,
2013-03-03 07:42:00,38.0,27.0,-100.00,SW,235,11.0,13.0,66,-99.99,,,0.00,,2013-03-03 14:42:00,
2013-03-03 07:52:00,37.0,28.0,-100.00,SW,235,12.0,14.0,68,-99.99,,,0.00,,2013-03-03 14:52:00,
2013-03-03 08:01:00,37.0,28.0,-100.00,SW,235,12.0,14.0,68,-99.99,,,0.00,,2013-03-03 15:01:00,
2013-03-03 08:11:00,37.0,28.0,-100.00,WSW,250,12.0,14.0,69,-99.99,,,0.00,,2013-03-03 15:11:00,
2013-03-03 08:22:00,37.0,28.0,-100.00,WSW,250,12.0,14.0,69,-99.99,,,0.00,,2013-03-03 15:22:00,
2013-03-03 08:32:00,37.0,28.0,-100.00,WSW,250,12.0,14.0,69,-99.99,,,0.00,,2013-03-03 15:32:00,
2013-03-03 08:42:00,37.0,28.0,-100.00,WSW,250,12.0,14.0,69,-99.99,,,0.00,,2013-03-03 15:42:00,
2013-03-03 08:51:00,39.0,28.0,-100.00,WSW,250,10.0,12.0,65,-99.99,,,0.00,,2013-03-03 15:51:00,
2013-03-03 09:01:00,39.0,28.0,-100.00,WSW,250,10.0,12.0,65,-99.99,,,0.00,,2013-03-03 16:01:00,
2013-03-03 09:12:00,40.0,28.0,-100.00,WSW,250,8.0,10.0,63,-99.99,,,0.00,,2013-03-03 16:12:00,
2013-03-03 09:21:00,40.0,28.0,-100.00,WSW,250,8.0,10.0,63,-99.99,,,0.00,,2013-03-03 16:21:00,
2013-03-03 09:31:00,40.0,28.0,-100.00,WSW,250,8.0,10.0,63,-99.99,,,0.00,,2013-03-03 16:31:00,
2013-03-03 09:41:00,40.0,28.0,-100.00,WSW,250,8.0,10.0,63,-99.99,,,0.00,,2013-03-03 16:41:00,
2013-03-03 09:51:00,41.0,29.0,-100.00,WSW,245,7.0,9.0,61,-99.99,,,0.00,,2013-03-03 16:51:00,
2013-03-03 10:01:00,41.0,29.0,-100.00,WSW,245,7.0,9.0,61,-99.99,,,0.00,,2013-03-03 17:01:00,
2013-03-03 10:11:00,43.0,28.0,-100.00,NNW,330,3.0,6.0,56,-99.99,,,0.00,,2013-03-03 17:11:00,
2013-03-03 10:22:00,43.0,28.0,-100.00,NNW,330,3.0,6.0,56,-99.99,,,0.00,,2013-03-03 17:22:00,
2013-03-03 10:32:00,43.0,28.0,-100.00,NNW,330,3.0,6.0,56,-99.99,,,0.00,,2013-03-03 17:32:00,
2013-03-03 10:42:00,43.0,28.0,-100.00,NNW,330,3.0,6.0,56,-99.99,,,0.00,,2013-03-03 17:42:00,
2013-03-03 10:52:00,45.0,28.0,-100.00,NW,305,2.0,4.0,52,-99.99,,,0.00,,2013-03-03 17:52:00,
2013-03-03 11:01:00,45.0,28.0,-100.00,NW,305,2.0,4.0,52,-99.99,,,0.00,,2013-03-03 18:01:00,
2013-03-03 11:11:00,46.0,28.0,-100.00,WSW,245,4.0,6.0,49,-99.99,,,0.00,,2013-03-03 18:11:00,
2013-03-03 11:21:00,46.0,28.0,-100.00,WSW,245,4.0,6.0,49,-99.99,,,0.00,,2013-03-03 18:21:00,
2013-03-03 11:31:00,46.0,28.0,-100.00,WSW,245,4.0,6.0,49,-99.99,,,0.00,,2013-03-03 18:31:00,
2013-03-03 11:41:00,46.0,28.0,-100.00,WSW,245,4.0,6.0,49,-99.99,,,0.00,,2013-03-03 18:41:00,
2013-03-03 11:52:00,49.0,28.0,-100.00,WSW,255,0.0,2.0,45,-99.99,,,0.00,,2013-03-03 18:52:00,
2013-03-03 12:01:00,49.0,28.0,-100.00,WSW,255,0.0,2.0,45,-99.99,,,0.00,,2013-03-03 19:01:00,
2013-03-03 12:11:00,49.0,28.0,-100.00,ESE,115,0.0,4.0,44,-99.99,,,0.00,,2013-03-03 19:11:00,
2013-03-03 12:21:00,49.0,28.0,-100.00,ESE,115,0.0,4.0,44,-99.99,,,0.00,,2013-03-03 19:21:00,
2013-03-03 12:31:00,49.0,28.0,-100.00,ESE,115,0.0,4.0,44,-99.99,,,0.00,,2013-03-03 19:31:00,
2013-03-03 12:42:00,49.0,28.0,-100.00,ESE,115,0.0,4.0,44,-99.99,,,0.00,,2013-03-03 19:42:00,
2013-03-03 12:51:00,49.0,28.0,-100.00,ENE,75,9.0,11.0,44,-99.99,,,0.00,,2013-03-03 19:51:00,
2013-03-03 13:01:00,49.0,28.0,-100.00,ENE,75,9.0,11.0,44,-99.99,,,0.00,,2013-03-03 20:01:00,
2013-03-03 13:11:00,52.0,29.0,-100.00,NE,50,5.0,9.0,41,-99.99,,,0.00,,2013-03-03 20:11:00,
2013-03-03 13:21:00,52.0,29.0,-100.00,NE,50,5.0,9.0,41,-99.99,,,0.00,,2013-03-03 20:21:00,
2013-03-03 13:32:00,52.0,29.0,-100.00,NE,50,5.0,9.0,41,-99.99,,,0.00,,2013-03-03 20:32:00,
2013-03-03 13:42:00,52.0,29.0,-100.00,NE,50,5.0,9.0,41,-99.99,,,0.00,,2013-03-03 20:42:00,
2013-03-03 13:52:00,54.0,30.0,-100.00,NE,45,9.0,13.0,40,-99.99,,,0.00,,2013-03-03 20:52:00,
2013-03-03 14:01:00,54.0,30.0,-100.00,NE,45,9.0,13.0,40,-99.99,,,0.00,,2013-03-03 21:01:00,
2013-03-03 14:11:00,55.0,29.0,-100.00,NE,45,6.0,10.0,37,-99.99,,,0.00,,2013-03-03 21:11:00,
2013-03-03 14:21:00,55.0,29.0,-100.00,NE,45,6.0,10.0,37,-99.99,,,0.00,,2013-03-03 21:21:00,
2013-03-03 14:32:00,55.0,29.0,-100.00,NE,45,6.0,10.0,37,-99.99,,,0.00,,2013-03-03 21:32:00,
2013-03-03 14:41:00,55.0,29.0,-100.00,NE,45,6.0,10.0,37,-99.99,,,0.00,,2013-03-03 21:41:00,
2013-03-03 16:52:00,30.0,27.0,-100.00,NNW,340,12.0,24.0,90,-99.99,,,0.00,,2013-03-03 23:52:00,
2013-03-03 17:01:00,30.0,27.0,-100.00,NNW,340,12.0,24.0,90,-99.99,,,0.00,,2013-03-04 00:01:00,
2013-03-03 17:11:00,31.0,28.0,-100.00,South,180,4.0,6.0,89,-99.99,,,0.00,,2013-03-04 00:11:00,
2013-03-03 17:21:00,31.0,28.0,-100.00,South,180,4.0,6.0,89,-99.99,,,0.00,,2013-03-04 00:21:00,
2013-03-03 17:32:00,31.0,28.0,-100.00,South,180,4.0,6.0,89,-99.99,,,0.00,,2013-03-04 00:32:00,
2013-03-03 17:41:00,31.0,28.0,-100.00,South,180,4.0,6.0,89,-99.99,,,0.00,,2013-03-04 00:41:00,
2013-03-03 17:51:00,31.0,28.0,-100.00,SSE,150,3.0,7.0,87,-99.99,,,0.00,,2013-03-04 00:51:00,
2013-03-03 18:01:00,31.0,28.0,-100.00,SSE,150,3.0,7.0,87,-99.99,,,0.00,,2013-03-04 01:01:00,
2013-03-03 18:11:00,31.0,25.0,-100.00,South,175,5.0,15.0,77,-99.99,,,0.00,,2013-03-04 01:11:00,
2013-03-03 18:21:00,31.0,25.0,-100.00,South,175,5.0,15.0,77,-99.99,,,0.00,,2013-03-04 01:21:00,
2013-03-03 18:31:00,31.0,25.0,-100.00,South,175,5.0,15.0,77,-99.99,,,0.00,,2013-03-04 01:31:00,
2013-03-03 18:42:00,31.0,25.0,-100.00,South,175,5.0,15.0,77,-99.99,,,0.00,,2013-03-04 01:42:00,
2013-03-03 18:51:00,32.0,18.0,-100.00,SW,230,11.0,21.0,56,-99.99,,,0.00,,2013-03-04 01:51:00,
2013-03-03 19:01:00,32.0,18.0,-100.00,SW,230,11.0,21.0,56,-99.99,,,0.00,,2013-03-04 02:01:00,
2013-03-03 19:11:00,33.0,13.0,-100.00,South,185,14.0,24.0,42,-99.99,,,0.00,,2013-03-04 02:11:00,
2013-03-03 19:22:00,33.0,13.0,-100.00,South,185,14.0,24.0,42,-99.99,,,0.00,,2013-03-04 02:22:00,
2013-03-03 19:31:00,33.0,13.0,-100.00,South,185,14.0,24.0,42,-99.99,,,0.00,,2013-03-04 02:31:00,
2013-03-03 19:52:00,33.0,13.0,-100.00,SSW,200,12.0,17.0,43,-99.99,,,0.00,,2013-03-04 02:52:00,
2013-03-03 20:01:00,33.0,13.0,-100.00,SSW,200,12.0,17.0,43,-99.99,,,0.00,,2013-03-04 03:01:00,
2013-03-03 20:11:00,32.0,12.0,-100.00,SSW,200,9.0,16.0,42,-99.99,,,0.00,,2013-03-04 03:11:00,
2013-03-03 20:21:00,32.0,12.0,-100.00,SSW,200,9.0,16.0,42,-99.99,,,0.00,,2013-03-04 03:21:00,
2013-03-03 20:32:00,32.0,12.0,-100.00,SSW,200,9.0,16.0,42,-99.99,,,0.00,,2013-03-04 03:32:00,
2013-03-03 20:41:00,32.0,12.0,-100.00,SSW,200,9.0,16.0,42,-99.99,,,0.00,,2013-03-04 03:41:00,
2013-03-03 20:52:00,32.0,11.0,-100.00,West,265,12.0,18.0,41,-99.99,,,0.00,,2013-03-04 03:52:00,
2013-03-03 21:01:00,32.0,11.0,-100.00,West,265,12.0,18.0,41,-99.99,,,0.00,,2013-03-04 04:01:00,
2013-03-03 21:11:00,31.0,12.0,-100.00,NNW,340,6.0,10.0,45,-99.99,,,0.00,,2013-03-04 04:11:00,
2013-03-03 21:22:00,31.0,12.0,-100.00,NNW,340,6.0,10.0,45,-99.99,,,0.00,,2013-03-04 04:22:00,
2013-03-03 21:31:00,31.0,12.0,-100.00,NNW,340,6.0,10.0,45,-99.99,,,0.00,,2013-03-04 04:31:00,
2013-03-03 21:42:00,31.0,12.0,-100.00,NNW,340,6.0,10.0,45,-99.99,,,0.00,,2013-03-04 04:42:00,
2013-03-03 21:51:00,30.0,13.0,-100.00,NW,325,11.0,18.0,49,-99.99,,,0.00,,2013-03-04 04:51:00,
2013-03-03 22:01:00,30.0,13.0,-100.00,NW,325,11.0,18.0,49,-99.99,,,0.00,,2013-03-04 05:01:00,
2013-03-03 22:11:00,30.0,14.0,-100.00,WNW,290,8.0,20.0,51,-99.99,,,0.00,,2013-03-04 05:11:00,
2013-03-03 22:22:00,30.0,14.0,-100.00,WNW,290,8.0,20.0,51,-99.99,,,0.00,,2013-03-04 05:22:00,
2013-03-03 22:31:00,30.0,14.0,-100.00,WNW,290,8.0,20.0,51,-99.99,,,0.00,,2013-03-04 05:31:00,
2013-03-03 22:42:00,30.0,14.0,-100.00,WNW,290,8.0,20.0,51,-99.99,,,0.00,,2013-03-04 05:42:00,
2013-03-03 22:52:00,29.0,14.0,-100.00,West,280,14.0,27.0,53,-99.99,,,0.00,,2013-03-04 05:52:00,
2013-03-03 23:01:00,29.0,14.0,-100.00,West,280,14.0,27.0,53,-99.99,,,0.00,,2013-03-04 06:01:00,
2013-03-03 23:11:00,29.0,13.0,-100.00,WNW,285,21.0,30.0,49,-99.99,,,0.00,,2013-03-04 06:11:00,
2013-03-03 23:21:00,29.0,13.0,-100.00,WNW,285,21.0,30.0,49,-99.99,,,0.00,,2013-03-04 06:21:00,
2013-03-03 23:31:00,29.0,13.0,-100.00,WNW,285,21.0,30.0,49,-99.99,,,0.00,,2013-03-04 06:31:00,
2013-03-03 23:42:00,29.0,13.0,-100.00,WNW,285,21.0,30.0,49,-99.99,,,0.00,,2013-03-04 06:42:00,
2013-03-03 23:51:00,30.0,10.0,-100.00,NW,305,34.0,51.0,42,-99.99,,,0.00,,2013-03-04 06:51:00,